Time;durP1;ratioP1;P1;durP2;ratioP2;P2;SDS_P1;SDS_P2;PMS_P1;PMS_P2;Temp;Humidity;BMP_temperature;BMP_pressure;BME280_temperature;BME280_humidity;BME280_pressure;Samples;Min_cycle;Max_cycle;Signal;HPM_P1;HPM_P2
2021/09/07 00:00:17;;;;;;;11.38;9.23;;;15.20;99.90;;;;;;6177176;28;20033;-77
2021/09/07 00:03:18;;;;;;;12.77;9.85;;;15.20;99.90;;;;;;6181319;28;20026;-78
2021/09/07 00:06:19;;;;;;;16.05;9.77;;;15.10;99.90;;;;;;6165478;28;20034;-78
2021/09/07 00:09:20;;;;;;;14.20;10.57;;;15.10;99.90;;;;;;6165016;28;20070;-77
2021/09/07 00:12:21;;;;;;;12.77;9.63;;;;;;;;;;6181317;28;20096;-78
2021/09/07 00:15:22;;;;;;;11.23;8.80;;;;;;;;;;6198482;28;20015;-78
2021/09/07 00:18:22;;;;;;;10.43;8.65;;;15.20;99.90;;;;;;6181143;28;20033;-78
2021/09/07 00:21:23;;;;;;;10.38;9.05;;;;;;;;;;6181115;28;20465;-77
2021/09/07 00:24:24;;;;;;;12.60;9.63;;;14.90;99.90;;;;;;6198875;28;20367;-78
2021/09/07 00:27:25;;;;;;;14.57;9.77;;;;;;;;;;6198368;28;20113;-77
2021/09/07 00:30:27;;;;;;;14.90;9.38;;;;;;;;;;6198824;28;20081;-78
2021/09/07 00:33:28;;;;;;;11.50;9.13;;;;;;;;;;6198614;28;20034;-78
2021/09/07 00:36:28;;;;;;;12.02;9.68;;;15.30;99.90;;;;;;6198423;28;20618;-78
2021/09/07 00:39:29;;;;;;;14.18;9.90;;;15.30;99.90;;;;;;6180630;28;20035;-77
2021/09/07 00:42:34;;;;;;;12.63;9.30;;;15.30;99.90;;;;;;6180362;28;20540;-77
2021/09/07 00:45:34;;;;;;;12.45;9.70;;;15.40;99.90;;;;;;6198485;28;20076;-78
2021/09/07 00:48:35;;;;;;;12.38;9.75;;;15.20;99.90;;;;;;6197933;28;20026;-78
2021/09/07 00:51:36;;;;;;;14.23;9.50;;;15.40;99.90;;;;;;6164305;28;20037;-78
2021/09/07 00:54:37;;;;;;;11.77;9.52;;;15.00;99.90;;;;;;6148647;28;20030;-78
2021/09/07 00:57:38;;;;;;;14.60;10.60;;;15.10;99.90;;;;;;6164431;28;20096;-78
2021/09/07 01:00:39;;;;;;;16.83;11.85;;;15.20;99.90;;;;;;6198009;28;20030;-78
2021/09/07 01:03:39;;;;;;;20.60;14.48;;;15.10;99.90;;;;;;6197624;28;20030;-78
2021/09/07 01:06:40;;;;;;;17.58;13.02;;;14.90;99.90;;;;;;6180436;28;20517;-78
2021/09/07 01:09:40;;;;;;;16.98;11.38;;;15.10;99.90;;;;;;6179745;28;20038;-78
2021/09/07 01:12:41;;;;;;;14.52;11.00;;;;;;;;;;6162859;28;20035;-78
2021/09/07 01:15:42;;;;;;;13.18;10.88;;;15.00;99.90;;;;;;6179752;28;20104;-78
2021/09/07 01:18:43;;;;;;;12.40;10.52;;;14.80;99.90;;;;;;6197792;28;20122;-78
2021/09/07 01:21:43;;;;;;;16.65;11.27;;;14.80;99.90;;;;;;6179956;28;20022;-78
2021/09/07 01:24:44;;;;;;;15.13;10.45;;;14.90;99.90;;;;;;6180241;28;20026;-78
2021/09/07 01:27:45;;;;;;;12.10;10.07;;;14.50;99.90;;;;;;6147662;28;20026;-77
2021/09/07 01:30:45;;;;;;;15.07;11.38;;;14.60;99.90;;;;;;6179041;28;20042;-78
2021/09/07 01:33:47;;;;;;;14.27;10.52;;;14.40;99.90;;;;;;6179824;28;20038;-77
2021/09/07 01:36:48;;;;;;;12.57;10.65;;;14.50;99.90;;;;;;6197073;28;20038;-78
2021/09/07 01:39:49;;;;;;;11.07;9.38;;;14.60;99.90;;;;;;6179194;28;20161;-78
2021/09/07 01:42:49;;;;;;;14.52;10.63;;;14.70;99.90;;;;;;6197293;28;20038;-78
2021/09/07 01:45:51;;;;;;;12.40;10.02;;;14.70;99.90;;;;;;6179028;28;20126;-78
2021/09/07 01:48:51;;;;;;;18.37;12.47;;;14.60;99.90;;;;;;6162938;28;20385;-78
2021/09/07 01:51:52;;;;;;;12.80;10.43;;;;;;;;;;6179343;28;20293;-78
2021/09/07 01:54:53;;;;;;;11.55;10.15;;;14.60;99.90;;;;;;6196690;28;20043;-78
2021/09/07 01:57:53;;;;;;;14.15;10.07;;;14.20;99.90;;;;;;6162895;28;20025;-77
2021/09/07 02:00:54;;;;;;;15.43;10.48;;;14.20;99.90;;;;;;6178847;28;20122;-78
2021/09/07 02:03:55;;;;;;;13.40;10.60;;;14.30;99.90;;;;;;6162787;28;20084;-78
2021/09/07 02:06:55;;;;;;;14.27;11.05;;;14.40;99.90;;;;;;6196526;28;20136;-78
2021/09/07 02:09:56;;;;;;;11.98;9.75;;;14.40;99.90;;;;;;6196357;28;20104;-78
2021/09/07 02:12:57;;;;;;;12.18;10.00;;;14.30;99.90;;;;;;6162708;28;20049;-78
2021/09/07 02:15:57;;;;;;;11.70;9.80;;;14.40;99.90;;;;;;6178296;28;20034;-78
2021/09/07 02:18:58;;;;;;;12.75;10.88;;;;;;;;;;6195895;28;20511;-78
2021/09/07 02:21:59;;;;;;;15.18;10.95;;;14.40;99.90;;;;;;6196152;28;20105;-78
2021/09/07 02:24:59;;;;;;;13.38;10.38;;;14.50;99.90;;;;;;6178398;28;20041;-78
2021/09/07 02:28:00;;;;;;;12.35;9.43;;;14.40;99.90;;;;;;6196010;28;20026;-78
2021/09/07 02:31:00;;;;;;;13.70;10.15;;;14.30;99.90;;;;;;6178157;28;20457;-78
2021/09/07 02:34:01;;;;;;;13.45;10.77;;;14.50;99.90;;;;;;6178303;28;20034;-77
2021/09/07 02:37:02;;;;;;;12.82;10.70;;;14.50;99.90;;;;;;6177469;28;20133;-78
2021/09/07 02:40:03;;;;;;;14.60;10.63;;;14.40;99.90;;;;;;6177891;28;20038;-78
2021/09/07 02:43:03;;;;;;;12.82;10.13;;;14.60;99.90;;;;;;6145965;28;20045;-78
2021/09/07 02:46:05;;;;;;;11.30;9.52;;;14.30;99.90;;;;;;6195507;28;20453;-78
2021/09/07 02:49:05;;;;;;;11.83;10.60;;;14.30;99.90;;;;;;6195445;28;20026;-78
2021/09/07 02:52:06;;;;;;;11.68;10.40;;;14.30;99.90;;;;;;6177453;28;20040;-77
2021/09/07 02:55:07;;;;;;;12.10;10.25;;;14.20;99.90;;;;;;6193465;28;20153;-78
2021/09/07 02:58:09;;;;;;;12.73;9.93;;;14.40;99.90;;;;;;6161404;28;20034;-78
2021/09/07 03:01:10;;;;;;;13.05;10.20;;;14.20;99.90;;;;;;6194906;28;20026;-78
2021/09/07 03:04:10;;;;;;;13.68;10.27;;;14.20;99.90;;;;;;6177537;28;20057;-78
2021/09/07 03:07:11;;;;;;;12.50;10.15;;;14.10;99.90;;;;;;6195103;28;20104;-78
2021/09/07 03:10:11;;;;;;;11.68;10.43;;;13.40;99.90;;;;;;6177042;28;20136;-78
2021/09/07 03:13:12;;;;;;;12.52;10.27;;;13.90;99.90;;;;;;6161037;28;20034;-78
2021/09/07 03:16:13;;;;;;;11.63;9.43;;;13.90;99.90;;;;;;6177372;28;20026;-78
2021/09/07 03:19:13;;;;;;;11.25;9.85;;;14.10;99.90;;;;;;6195033;28;20063;-78
2021/09/07 03:22:14;;;;;;;12.88;9.93;;;13.70;99.90;;;;;;6194908;28;20023;-78
2021/09/07 03:25:14;;;;;;;11.95;10.27;;;14.10;99.90;;;;;;6194497;28;20058;-78
2021/09/07 03:28:15;;;;;;;11.45;9.68;;;;;;;;;;6194604;28;20034;-77
2021/09/07 03:31:16;;;;;;;13.07;10.18;;;;;;;;;;6194318;28;20084;-78
2021/09/07 03:34:17;;;;;;;13.13;10.25;;;;;;;;;;6194603;28;20113;-78
2021/09/07 03:37:18;;;;;;;11.05;9.73;;;;;;;;;;6193947;28;20050;-78
2021/09/07 03:40:19;;;;;;;16.70;10.95;;;;;;;;;;6194668;28;20062;-78
2021/09/07 03:43:20;;;;;;;11.35;9.60;;;;;;;;;;6194395;28;20026;-78
2021/09/07 03:46:21;;;;;;;15.68;10.50;;;;;;;;;;6194832;28;20419;-78
2021/09/07 03:49:22;;;;;;;11.32;10.02;;;;;;;;;;6194929;28;20033;-78
2021/09/07 03:52:23;;;;;;;15.38;10.40;;;14.00;99.90;;;;;;6194363;28;20070;-78
2021/09/07 03:55:23;;;;;;;11.60;9.85;;;13.80;99.90;;;;;;6160831;28;20460;-78
2021/09/07 03:58:24;;;;;;;15.00;9.68;;;13.80;99.90;;;;;;6160641;28;20054;-78
2021/09/07 04:01:24;;;;;;;11.85;9.25;;;13.60;99.90;;;;;;6176855;28;20457;-78
2021/09/07 04:04:25;;;;;;;11.70;9.63;;;13.70;99.90;;;;;;6144490;28;20030;-78
2021/09/07 04:07:26;;;;;;;17.35;10.40;;;13.90;99.90;;;;;;6176830;28;20023;-78
2021/09/07 04:10:26;;;;;;;11.77;10.00;;;13.90;99.90;;;;;;6176642;28;20034;-78
2021/09/07 04:13:27;;;;;;;11.63;10.27;;;13.80;99.90;;;;;;6194207;28;20026;-78
2021/09/07 04:16:27;;;;;;;11.52;9.95;;;13.70;99.90;;;;;;6176563;28;20384;-78
2021/09/07 04:19:28;;;;;;;14.80;10.73;;;13.60;99.90;;;;;;6194235;28;20026;-78
2021/09/07 04:22:28;;;;;;;47.75;29.25;;;13.70;99.90;;;;;;6176642;28;20096;-78
2021/09/07 04:25:29;;;;;;;23.92;16.90;;;13.60;99.90;;;;;;6194313;28;20117;-78
2021/09/07 04:28:30;;;;;;;14.57;11.32;;;13.60;99.90;;;;;;6176199;28;20034;-79
2021/09/07 04:31:31;;;;;;;12.82;11.35;;;13.50;99.90;;;;;;6176300;28;20046;-78
2021/09/07 04:34:32;;;;;;;14.00;11.40;;;13.60;99.90;;;;;;6194094;28;20018;-79
2021/09/07 04:37:32;;;;;;;16.10;10.80;;;13.70;99.90;;;;;;6175690;28;20174;-78
2021/09/07 04:40:33;;;;;;;13.30;10.25;;;13.80;99.90;;;;;;6193986;28;20035;-78
2021/09/07 04:43:34;;;;;;;12.02;9.80;;;13.80;99.90;;;;;;6193961;28;20425;-78
2021/09/07 04:46:34;;;;;;;14.57;11.27;;;13.60;99.90;;;;;;6176967;28;20392;-78
2021/09/07 04:49:35;;;;;;;16.73;12.90;;;13.60;99.90;;;;;;6198386;28;20026;-78
2021/09/07 04:52:35;;;;;;;15.93;12.07;;;13.40;99.90;;;;;;6164310;28;20495;-77
2021/09/07 04:55:36;;;;;;;15.38;11.57;;;13.30;99.90;;;;;;6180476;28;20068;-78
2021/09/07 04:58:37;;;;;;;13.13;10.85;;;13.30;99.90;;;;;;6164210;28;20373;-77
2021/09/07 05:01:37;;;;;;;13.82;11.90;;;13.30;99.90;;;;;;6180250;28;20018;-78
2021/09/07 05:04:38;;;;;;;12.68;10.75;;;13.30;99.90;;;;;;6180254;28;20026;-77
2021/09/07 05:07:38;;;;;;;15.35;11.77;;;13.50;99.90;;;;;;6197741;28;20380;-77
2021/09/07 05:10:39;;;;;;;18.02;11.63;;;13.50;99.90;;;;;;6179863;28;20104;-77
2021/09/07 05:13:40;;;;;;;12.70;10.43;;;13.50;99.90;;;;;;6180200;28;20033;-78
2021/09/07 05:16:40;;;;;;;15.75;10.15;;;13.50;99.90;;;;;;6163711;28;20030;-78
2021/09/07 05:19:41;;;;;;;13.18;10.55;;;13.40;99.90;;;;;;6197391;28;20089;-78
2021/09/07 05:22:41;;;;;;;17.80;11.80;;;13.60;99.90;;;;;;6179753;28;20030;-77
2021/09/07 05:25:43;;;;;;;12.95;10.95;;;;;;;;;;6163347;28;20040;-78
2021/09/07 05:28:44;;;;;;;14.25;9.82;;;13.70;99.90;;;;;;6197095;28;20034;-78
2021/09/07 05:31:45;;;;;;;15.10;11.15;;;13.80;99.90;;;;;;6179828;28;20469;-78
2021/09/07 05:34:46;;;;;;;14.40;11.35;;;;;;;;;;6179645;28;20030;-77
2021/09/07 05:37:46;;;;;;;15.10;11.20;;;13.90;99.90;;;;;;6170982;28;20055;-78
2021/09/07 05:40:47;;;;;;;13.27;11.15;;;14.20;99.90;;;;;;6165311;28;20039;-77
2021/09/07 05:43:48;;;;;;;14.45;10.68;;;14.50;99.90;;;;;;6171245;28;20085;-78
2021/09/07 05:46:48;;;;;;;12.10;10.13;;;15.10;99.90;;;;;;6172154;28;20042;-79
2021/09/07 05:49:49;;;;;;;12.27;9.93;;;15.20;99.90;;;;;;6156693;28;20023;-77
2021/09/07 05:52:50;;;;;;;15.13;10.55;;;15.50;99.90;;;;;;6162016;28;20034;-78
2021/09/07 05:55:53;;;;;;;14.43;10.55;;;;;;;;;;6170683;28;20034;-78
2021/09/07 05:59:01;;;;;;;13.38;9.75;;;16.20;99.90;;;;;;6155370;28;20365;-79
2021/09/07 06:02:02;;;;;;;11.75;10.18;;;16.20;99.90;;;;;;6128023;28;20046;-78
2021/09/07 06:05:04;;;;;;;14.43;9.88;;;16.00;99.90;;;;;;6133473;28;20027;-78
2021/09/07 06:08:05;;;;;;;13.85;9.85;;;16.60;99.90;;;;;;6153972;28;20058;-78
2021/09/07 06:11:06;;;;;;;12.68;9.90;;;16.80;99.90;;;;;;6170401;28;20045;-78
2021/09/07 06:14:07;;;;;;;12.05;8.85;;;17.30;99.90;;;;;;6152862;28;20453;-78
2021/09/07 06:17:09;;;;;;;10.57;9.48;;;17.20;99.90;;;;;;6148426;28;20469;-79
2021/09/07 06:20:10;;;;;;;15.60;12.93;;;17.40;99.90;;;;;;6148606;28;20046;-78
2021/09/07 06:23:10;;;;;;;14.30;12.80;;;17.70;99.90;;;;;;6146939;28;20035;-78
2021/09/07 06:26:11;;;;;;;15.48;13.20;;;18.00;99.90;;;;;;6148872;28;20035;-79
2021/09/07 06:29:12;;;;;;;11.82;10.52;;;18.20;99.90;;;;;;6148237;28;20923;-79
2021/09/07 06:32:16;;;;;;;12.88;11.07;;;18.90;99.90;;;;;;6146787;28;20494;-79
2021/09/07 06:35:17;;;;;;;11.80;10.23;;;18.80;99.90;;;;;;6131648;28;20022;-79
2021/09/07 06:38:17;;;;;;;12.55;10.77;;;18.70;99.90;;;;;;6160646;28;20055;-78
2021/09/07 06:41:18;;;;;;;13.73;10.18;;;18.60;99.90;;;;;;6147910;28;20038;-78
2021/09/07 06:44:18;;;;;;;12.65;10.73;;;18.60;99.90;;;;;;6148087;28;20034;-79
2021/09/07 06:47:19;;;;;;;13.30;10.38;;;18.80;99.90;;;;;;6163149;28;20492;-78
2021/09/07 06:50:20;;;;;;;13.80;10.85;;;18.50;99.90;;;;;;6151489;28;20043;-79
2021/09/07 06:53:20;;;;;;;13.95;10.25;;;18.60;99.90;;;;;;6158093;28;20409;-79
2021/09/07 06:56:21;;;;;;;13.27;10.02;;;18.80;99.90;;;;;;6146643;28;20110;-78
2021/09/07 06:59:21;;;;;;;13.07;10.38;;;19.20;99.90;;;;;;6151160;28;20031;-78
2021/09/07 07:02:22;;;;;;;10.68;9.45;;;19.40;99.90;;;;;;6159080;28;20023;-78
2021/09/07 07:05:25;;;;;;;11.20;9.63;;;19.50;99.90;;;;;;6155267;28;20424;-78
2021/09/07 07:08:25;;;;;;;11.02;9.35;;;19.90;99.90;;;;;;6169371;28;20533;-79
2021/09/07 07:11:26;;;;;;;11.68;9.90;;;20.20;99.90;;;;;;6169774;28;20143;-79
2021/09/07 07:14:27;;;;;;;10.77;8.50;;;20.50;99.90;;;;;;6149205;28;20027;-78
2021/09/07 07:17:27;;;;;;;11.43;9.63;;;20.60;99.90;;;;;;6114288;28;20081;-78
2021/09/07 07:20:28;;;;;;;13.25;10.40;;;21.00;99.90;;;;;;6162168;28;20027;-78
2021/09/07 07:23:28;;;;;;;13.82;10.30;;;20.70;99.90;;;;;;6138121;28;20038;-79
2021/09/07 07:26:29;;;;;;;11.55;9.73;;;;;;;;;;6146018;28;20410;-78
2021/09/07 07:29:30;;;;;;;10.23;9.13;;;21.00;99.90;;;;;;6157064;28;20030;-79
2021/09/07 07:32:31;;;;;;;12.60;9.18;;;21.20;99.90;;;;;;6136166;28;20125;-79
2021/09/07 07:35:31;;;;;;;11.57;8.80;;;21.30;99.90;;;;;;6169915;28;20114;-78
2021/09/07 07:38:32;;;;;;;11.30;9.38;;;;;;;;;;6168336;28;20106;-79
2021/09/07 07:41:33;;;;;;;12.80;9.90;;;21.50;99.90;;;;;;6169923;28;20469;-78
2021/09/07 07:44:33;;;;;;;11.38;9.48;;;21.60;99.90;;;;;;6170040;28;20041;-79
2021/09/07 07:47:34;;;;;;;11.40;9.65;;;21.50;99.90;;;;;;6149808;28;20490;-78
2021/09/07 07:50:36;;;;;;;11.52;10.10;;;21.60;99.90;;;;;;6129422;28;20418;-78
2021/09/07 07:53:37;;;;;;;12.18;10.27;;;21.50;99.90;;;;;;6149334;28;20043;-78
2021/09/07 07:56:38;;;;;;;11.55;10.32;;;21.50;99.90;;;;;;6130614;28;20036;-78
2021/09/07 07:59:41;;;;;;;13.65;11.23;;;21.10;99.90;;;;;;6160490;28;20031;-78
2021/09/07 08:02:42;;;;;;;14.43;10.90;;;21.10;99.90;;;;;;6150856;28;20033;-78
2021/09/07 08:05:42;;;;;;;14.05;11.60;;;21.00;99.90;;;;;;6161732;28;20039;-78
2021/09/07 08:08:43;;;;;;;12.35;10.50;;;21.00;99.90;;;;;;6145563;28;20042;-78
2021/09/07 08:11:43;;;;;;;13.30;11.10;;;21.30;99.90;;;;;;6145429;28;20385;-78
2021/09/07 08:14:47;;;;;;;15.38;11.10;;;21.80;99.90;;;;;;6146826;28;20059;-79
2021/09/07 08:17:49;;;;;;;11.93;10.40;;;23.00;99.90;;;;;;6145263;28;20461;-78
2021/09/07 08:20:50;;;;;;;11.63;10.43;;;24.00;99.90;;;;;;6162598;28;20030;-78
2021/09/07 08:23:51;;;;;;;12.90;10.57;;;24.90;98.80;;;;;;6176519;28;20038;-78
2021/09/07 08:26:51;;;;;;;12.00;9.85;;;25.30;96.80;;;;;;6172082;28;20101;-78
2021/09/07 08:29:52;;;;;;;12.65;9.18;;;25.80;94.70;;;;;;6145639;28;20078;-78
2021/09/07 08:32:53;;;;;;;12.25;8.93;;;26.20;93.60;;;;;;6149561;28;20082;-78
2021/09/07 08:35:53;;;;;;;9.60;8.30;;;26.70;92.60;;;;;;6149853;28;20035;-78
2021/09/07 08:38:54;;;;;;;10.10;9.00;;;27.00;90.70;;;;;;6170420;28;20062;-78
2021/09/07 08:41:54;;;;;;;9.87;8.53;;;27.20;88.70;;;;;;6173419;28;20039;-79
2021/09/07 08:44:55;;;;;;;11.53;8.63;;;27.50;87.60;;;;;;6172956;28;20145;-78
2021/09/07 08:48:01;;;;;;;9.40;8.03;;;27.50;84.70;;;;;;6167220;28;20027;-79
2021/09/07 08:51:01;;;;;;;9.55;8.57;;;27.70;84.60;;;;;;6150118;28;20373;-79
2021/09/07 08:54:02;;;;;;;9.93;8.53;;;27.80;82.90;;;;;;6133107;28;20030;-78
2021/09/07 08:57:03;;;;;;;11.47;8.33;;;28.00;83.70;;;;;;6160770;28;20538;-79
2021/09/07 09:00:05;;;;;;;9.00;7.87;;;28.50;83.00;;;;;;6155825;28;20027;-79
2021/09/07 09:03:10;;;;;;;12.27;9.55;;;28.70;79.70;;;;;;6149535;28;20034;-78
2021/09/07 09:06:11;;;;;;;9.73;8.23;;;28.80;77.90;;;;;;6133046;28;20840;-78
2021/09/07 09:09:13;;;;;;;10.05;8.40;;;29.10;78.70;;;;;;6148629;28;20034;-78
2021/09/07 09:12:13;;;;;;;12.45;9.18;;;29.20;76.80;;;;;;6149193;28;20146;-79
2021/09/07 09:15:16;;;;;;;10.03;8.80;;;29.50;77.30;;;;;;6155521;28;20041;-79
2021/09/07 09:18:16;;;;;;;10.15;9.00;;;29.30;75.30;;;;;;6148749;28;20027;-79
2021/09/07 09:21:30;;;;;;;11.03;8.43;;;29.20;89.40;;;;;;6148806;28;20028;-79
2021/09/07 09:24:30;;;;;;;10.82;8.15;;;29.40;75.00;;;;;;6149929;28;20023;-79
2021/09/07 09:27:31;;;;;;;9.87;8.43;;;29.50;73.80;;;;;;6132157;28;20100;-79
2021/09/07 09:30:36;;;;;;;10.53;8.53;;;29.70;73.60;;;;;;6132520;28;20073;-79
2021/09/07 09:33:37;;;;;;;10.13;8.55;;;30.00;72.00;;;;;;6131477;28;20031;-79
2021/09/07 09:36:37;;;;;;;9.60;8.00;;;29.60;72.00;;;;;;6163673;28;20054;-79
2021/09/07 09:39:48;;;;;;;9.73;7.67;;;29.50;89.90;;;;;;6163462;28;20058;-79
2021/09/07 09:42:49;;;;;;;9.35;8.40;;;29.40;74.90;;;;;;6179709;28;20041;-79
2021/09/07 09:45:50;;;;;;;10.47;8.07;;;29.60;73.00;;;;;;6196716;28;20030;-79
2021/09/07 09:48:52;;;;;;;9.95;8.32;;;29.90;72.40;;;;;;6147308;28;20022;-79
2021/09/07 09:52:00;;;;;;;8.50;7.63;;;29.90;72.10;;;;;;6163055;28;20078;-79
2021/09/07 09:55:02;;;;;;;8.80;7.90;;;30.00;87.00;;;;;;6180019;28;20127;-79
2021/09/07 09:58:03;;;;;;;10.02;8.88;;;30.20;94.00;;;;;;6179317;28;20057;-79
2021/09/07 10:01:05;;;;;;;11.50;8.23;;;30.30;94.40;;;;;;6196321;28;20081;-79
2021/09/07 10:04:06;;;;;;;11.10;9.02;;;;;;;;;;6196356;28;20360;-79
2021/09/07 10:07:07;;;;;;;8.68;7.78;;;30.00;93.70;;;;;;6178452;28;20113;-78
2021/09/07 10:10:08;;;;;;;8.52;7.68;;;30.10;93.90;;;;;;6162748;28;20399;-78
2021/09/07 10:13:09;;;;;;;12.15;7.72;;;29.90;93.30;;;;;;6196221;28;20714;-78
2021/09/07 10:16:16;;;;;;;9.07;8.18;;;30.00;83.20;;;;;;6196310;28;20169;-78
2021/09/07 10:19:57;;;;;;;9.27;7.63;;;30.00;79.20;;;;;;6179167;28;20354;-79
2021/09/07 10:26:00;;;;;;;10.85;8.48;;;30.10;81.10;;;;;;6161929;28;20031;-79
2021/09/07 10:29:00;;;;;;;9.30;8.40;;;30.10;70.50;;;;;;6178344;28;20037;-79
2021/09/07 10:32:01;;;;;;;10.13;8.27;;;30.20;71.30;;;;;;6195792;28;20046;-79
2021/09/07 10:35:07;;;;;;;10.30;8.27;;;30.30;72.30;;;;;;6161997;28;20548;-78
2021/09/07 10:38:08;;;;;;;10.35;8.40;;;30.30;69.70;;;;;;6177707;28;20114;-79
2021/09/07 10:41:09;;;;;;;10.20;8.57;;;30.10;68.70;;;;;;6146112;28;20034;-79
2021/09/07 10:44:24;;;;;;;8.48;7.68;;;30.10;69.80;;;;;;6161617;28;20026;-79
2021/09/07 10:47:24;;;;;;;11.32;7.85;;;30.00;70.40;;;;;;6178522;28;20046;-78
2021/09/07 10:50:56;;;;;;;8.97;8.07;;;29.80;70.50;;;;;;6161579;28;20089;-79
2021/09/07 10:54:10;;;;;;;9.45;8.45;;;29.70;70.10;;;;;;6177840;28;20762;-78
2021/09/07 10:57:52;;;;;;;9.63;8.07;;;29.50;71.00;;;;;;6193457;28;20038;-79
2021/09/07 11:00:52;;;;;;;10.55;8.25;;;29.60;70.60;;;;;;6194975;28;20044;-79
2021/09/07 11:04:31;;;;;;;11.27;8.53;;;29.90;70.90;;;;;;6177927;28;20354;-78
2021/09/07 11:07:35;;;;;;;11.02;8.05;;;29.70;70.20;;;;;;6177214;28;20491;-79
2021/09/07 11:10:42;;;;;;;10.85;7.88;;;29.80;82.10;;;;;;6194889;28;20049;-79
2021/09/07 11:13:42;;;;;;;9.10;8.20;;;29.50;70.50;;;;;;6194731;28;20065;-79
2021/09/07 11:16:57;;;;;;;8.90;8.10;;;29.40;71.00;;;;;;6177578;28;20475;-79
2021/09/07 11:20:06;;;;;;;8.52;7.72;;;29.40;71.10;;;;;;6194704;28;20031;-79
2021/09/07 11:23:17;;;;;;;8.88;7.60;;;29.60;71.20;;;;;;6145586;28;20023;-79
2021/09/07 11:26:17;;;;;;;9.50;8.03;;;29.50;69.90;;;;;;6177283;28;20049;-79
2021/09/07 11:29:31;;;;;;;9.53;8.13;;;29.50;70.20;;;;;;6161159;28;20026;-78
2021/09/07 11:32:31;;;;;;;8.43;7.55;;;29.50;70.50;;;;;;6194747;28;20116;-79
2021/09/07 11:35:34;;;;;;;10.53;8.27;;;29.50;70.60;;;;;;6177119;28;20489;-79
2021/09/07 11:38:39;;;;;;;11.43;8.15;;;29.40;69.80;;;;;;6176969;28;20162;-79
2021/09/07 11:41:40;;;;;;;10.70;8.20;;;29.40;69.80;;;;;;6176881;28;20026;-79
2021/09/07 11:44:41;;;;;;;9.83;8.83;;;29.40;71.40;;;;;;6145061;28;20089;-79
2021/09/07 11:47:44;;;;;;;10.07;7.83;;;29.30;70.80;;;;;;6194897;28;20033;-79
2021/09/07 11:50:44;;;;;;;9.30;7.57;;;29.40;70.10;;;;;;6160656;28;20047;-79
2021/09/07 11:53:46;;;;;;;10.27;7.60;;;29.90;72.00;;;;;;6195135;28;20038;-79
2021/09/07 11:56:57;;;;;;;10.20;8.68;;;29.50;71.60;;;;;;6161875;28;20113;-79
2021/09/07 12:00:01;;;;;;;9.25;7.72;;;29.40;69.30;;;;;;6165626;28;20022;-79
2021/09/07 12:03:15;;;;;;;10.85;7.45;;;29.40;68.90;;;;;;6199302;28;20461;-79
2021/09/07 12:06:32;;;;;;;10.80;8.20;;;29.40;69.60;;;;;;6165785;28;20026;-79
2021/09/07 12:09:34;;;;;;;10.90;7.95;;;29.10;69.30;;;;;;6182835;28;20056;-79
2021/09/07 12:12:36;;;;;;;12.15;7.82;;;29.20;69.80;;;;;;6181798;28;20046;-79
2021/09/07 12:15:39;;;;;;;;;;;29.10;71.10;;;;;;6182290;28;20392;-79
2021/09/07 12:18:44;;;;;;;10.40;8.20;;;29.20;68.90;;;;;;6181483;28;19917;-79
2021/09/07 12:21:44;;;;;;;12.40;8.07;;;29.20;70.40;;;;;;6165563;28;20045;-77
2021/09/07 12:25:07;;;;;;;13.03;7.07;;;29.20;70.30;;;;;;6180827;28;20022;-78
2021/09/07 12:28:08;;;;;;;9.63;7.63;;;29.20;70.30;;;;;;6198823;28;20018;-77
2021/09/07 12:31:19;;;;;;;9.10;7.57;;;29.20;70.00;;;;;;6164573;28;20488;-77
2021/09/07 12:34:22;;;;;;;8.45;7.25;;;29.00;68.50;;;;;;6181096;28;20404;-78
2021/09/07 12:37:23;;;;;;;9.30;7.68;;;29.00;69.90;;;;;;6172458;28;20054;-77
2021/09/07 12:40:23;;;;;;;8.23;7.43;;;28.90;69.20;;;;;;6174140;28;20042;-77
2021/09/07 12:43:28;;;;;;;10.63;7.67;;;28.90;69.60;;;;;;6160353;28;20030;-77
2021/09/07 12:46:29;;;;;;;8.88;7.82;;;28.70;68.40;;;;;;6148326;28;20834;-77
2021/09/07 12:49:29;;;;;;;8.47;7.33;;;28.60;67.40;;;;;;6133304;28;20027;-77
2021/09/07 12:52:30;;;;;;;10.33;8.00;;;28.50;68.30;;;;;;6158764;28;20042;-77
2021/09/07 12:55:31;;;;;;;8.43;6.80;;;28.40;68.00;;;;;;6172164;28;20419;-77
2021/09/07 12:58:32;;;;;;;8.20;7.13;;;28.60;67.40;;;;;;6150756;28;20073;-77
2021/09/07 13:01:33;;;;;;;;;;;28.70;68.30;;;;;;6150890;28;20035;-77
2021/09/07 13:04:33;;;;;;;8.13;7.33;;;28.60;65.70;;;;;;6149356;28;19921;-77
2021/09/07 13:07:34;;;;;;;7.90;7.10;;;28.20;64.80;;;;;;6150653;28;20410;-77
2021/09/07 13:10:35;;;;;;;8.07;6.63;;;28.30;68.50;;;;;;6148899;28;20027;-77
2021/09/07 13:13:35;;;;;;;8.93;7.93;;;28.10;68.30;;;;;;6148925;28;20035;-77
2021/09/07 13:16:36;;;;;;;10.30;7.77;;;28.00;67.30;;;;;;6149802;28;20445;-77
2021/09/07 13:19:37;;;;;;;8.23;7.43;;;28.10;70.00;;;;;;6148712;28;20027;-78
2021/09/07 13:22:37;;;;;;;9.20;7.73;;;28.30;82.80;;;;;;6148709;28;20035;-77
2021/09/07 13:25:38;;;;;;;8.40;7.43;;;28.40;69.50;;;;;;6132925;28;20027;-77
2021/09/07 13:28:39;;;;;;;8.32;7.38;;;28.50;77.40;;;;;;6149900;28;20030;-77
2021/09/07 13:31:40;;;;;;;8.97;8.07;;;;;;;;;;6169447;28;20046;-77
2021/09/07 13:34:41;;;;;;;10.45;8.10;;;;;;;;;;6149836;28;20031;-77
2021/09/07 13:37:42;;;;;;;9.43;8.30;;;;;;;;;;6174312;28;20496;-78
2021/09/07 13:40:43;;;;;;;10.02;8.02;;;28.30;93.80;;;;;;6197100;28;20105;-77
2021/09/07 13:43:43;;;;;;;9.13;8.20;;;28.20;94.10;;;;;;6196625;28;20065;-77
2021/09/07 13:46:46;;;;;;;10.73;9.13;;;;;;;;;;6179123;28;20041;-77
2021/09/07 13:49:47;;;;;;;9.60;8.60;;;;;;;;;;6196340;28;20269;-77
2021/09/07 13:52:48;;;;;;;8.70;7.90;;;;;;;;;;6196543;28;20034;-77
2021/09/07 13:55:49;;;;;;;9.48;8.48;;;;;;;;;;6196487;28;20038;-77
2021/09/07 13:58:50;;;;;;;8.90;8.02;;;28.30;76.50;;;;;;6196895;28;20092;-77
2021/09/07 14:01:50;;;;;;;9.03;8.13;;;28.30;74.40;;;;;;6179201;28;20097;-77
2021/09/07 14:04:51;;;;;;;9.80;8.80;;;28.20;74.70;;;;;;6178711;28;20030;-78
2021/09/07 14:07:51;;;;;;;11.17;8.97;;;28.10;76.00;;;;;;6178446;28;20039;-77
2021/09/07 14:10:54;;;;;;;9.40;8.50;;;28.00;74.50;;;;;;6196032;28;20034;-77
2021/09/07 14:13:54;;;;;;;10.43;9.13;;;28.40;76.00;;;;;;6178874;28;20030;-77
2021/09/07 14:16:55;;;;;;;10.80;9.70;;;27.70;75.20;;;;;;6178716;28;20038;-77
2021/09/07 14:19:56;;;;;;;11.27;8.97;;;27.60;75.80;;;;;;6178132;28;20583;-77
2021/09/07 14:22:56;;;;;;;10.87;8.93;;;27.60;77.30;;;;;;6178261;28;20113;-77
2021/09/07 14:25:57;;;;;;;11.27;8.60;;;27.70;78.90;;;;;;6196128;28;20372;-77
2021/09/07 14:28:57;;;;;;;10.23;9.20;;;27.80;78.40;;;;;;6196222;28;20018;-78
2021/09/07 14:31:58;;;;;;;10.13;8.73;;;27.80;78.80;;;;;;6178029;28;20121;-78
2021/09/07 14:34:59;;;;;;;10.60;9.07;;;27.50;78.90;;;;;;6178154;28;20026;-77
2021/09/07 14:37:59;;;;;;;15.33;9.90;;;27.50;79.80;;;;;;6177822;28;20054;-78
2021/09/07 14:41:00;;;;;;;11.10;9.23;;;27.60;80.40;;;;;;6177889;28;20092;-77
2021/09/07 14:44:00;;;;;;;10.13;9.13;;;27.70;79.70;;;;;;6177690;28;20383;-77
2021/09/07 14:47:01;;;;;;;10.13;9.07;;;27.70;80.10;;;;;;6195389;28;20030;-77
2021/09/07 14:50:02;;;;;;;10.20;9.10;;;27.60;77.10;;;;;;6177727;28;20026;-78
2021/09/07 14:53:03;;;;;;;11.90;9.77;;;27.60;78.80;;;;;;6178111;28;20042;-78
2021/09/07 14:56:03;;;;;;;10.40;9.30;;;27.60;80.70;;;;;;6195625;28;20034;-77
2021/09/07 14:59:04;;;;;;;10.80;9.30;;;27.70;78.90;;;;;;6195025;28;20125;-77
2021/09/07 15:02:05;;;;;;;11.03;9.57;;;27.70;78.10;;;;;;6195271;28;20065;-78
2021/09/07 15:05:06;;;;;;;12.03;10.13;;;27.70;78.00;;;;;;6195140;28;20120;-77
2021/09/07 15:08:07;;;;;;;11.48;9.68;;;27.60;78.80;;;;;;6195346;28;20045;-77
2021/09/07 15:11:08;;;;;;;11.43;9.90;;;27.60;79.80;;;;;;6194738;28;20519;-77
2021/09/07 15:14:08;;;;;;;12.23;10.23;;;27.40;80.70;;;;;;6195357;28;20034;-77
2021/09/07 15:17:09;;;;;;;11.30;9.77;;;27.30;79.50;;;;;;6194975;28;20034;-77
2021/09/07 15:20:10;;;;;;;11.93;9.32;;;27.20;80.60;;;;;;6177384;28;20030;-77
2021/09/07 15:23:11;;;;;;;11.40;10.10;;;27.10;80.10;;;;;;6195148;28;20453;-77
2021/09/07 15:26:11;;;;;;;18.90;10.53;;;26.90;80.00;;;;;;6161251;28;20026;-77
2021/09/07 15:29:12;;;;;;;12.67;9.50;;;26.90;79.60;;;;;;6194867;28;20046;-76
2021/09/07 15:32:13;;;;;;;10.47;9.13;;;27.00;80.30;;;;;;6176376;28;20034;-77
2021/09/07 15:35:14;;;;;;;14.40;10.23;;;27.00;81.10;;;;;;6177233;28;20034;-77
2021/09/07 15:38:14;;;;;;;11.00;9.25;;;27.00;79.70;;;;;;6176839;28;20389;-77
2021/09/07 15:41:18;;;;;;;12.77;9.43;;;26.90;79.80;;;;;;6161195;28;20038;-77
2021/09/07 15:44:22;;;;;;;11.73;9.30;;;26.80;79.40;;;;;;6194741;28;20367;-77
2021/09/07 15:47:23;;;;;;;10.60;9.32;;;26.70;80.70;;;;;;6177499;28;20037;-77